Time;durP1;ratioP1;P1;durP2;ratioP2;P2;SDS_P1;SDS_P2;PMS_P1;PMS_P2;Temp;Humidity;BMP_temperature;BMP_pressure;BME280_temperature;BME280_humidity;BME280_pressure;Samples;Min_cycle;Max_cycle;Signal;HPM_P1;HPM_P2
2021/10/09 00:02:02;;;;;;;18.30;10.07;;;14.90;86.00;;;;;;5025297;28;20481;-62
2021/10/09 00:04:27;;;;;;;24.45;10.55;;;14.90;86.00;;;;;;5025441;28;20415;-62
2021/10/09 00:06:53;;;;;;;19.60;9.85;;;14.90;85.90;;;;;;5027293;28;20626;-61
2021/10/09 00:09:19;;;;;;;15.02;10.05;;;14.90;86.10;;;;;;5023538;28;20115;-62
2021/10/09 00:11:44;;;;;;;18.45;11.85;;;14.90;86.10;;;;;;5022929;28;20034;-61
2021/10/09 00:14:11;;;;;;;28.63;11.77;;;14.90;86.00;;;;;;5025588;28;20408;-61
2021/10/09 00:16:37;;;;;;;23.80;11.02;;;14.90;86.00;;;;;;5008598;28;20439;-62
2021/10/09 00:19:03;;;;;;;26.02;11.68;;;14.90;86.00;;;;;;5021761;28;20119;-61
2021/10/09 00:21:28;;;;;;;23.45;11.52;;;14.90;86.00;;;;;;5019818;28;20021;-62
2021/10/09 00:23:54;;;;;;;17.92;12.15;;;14.90;86.00;;;;;;5003608;28;20737;-61
2021/10/09 00:26:19;;;;;;;21.77;12.85;;;14.90;86.00;;;;;;5022007;28;20041;-61
2021/10/09 00:28:46;;;;;;;16.63;10.68;;;14.90;86.00;;;;;;5006310;28;20033;-61
2021/10/09 00:31:11;;;;;;;21.23;12.80;;;14.90;86.00;;;;;;5020792;28;20025;-62
2021/10/09 00:33:37;;;;;;;21.92;13.35;;;14.90;86.00;;;;;;5002106;28;20048;-61
2021/10/09 00:36:02;;;;;;;30.20;13.98;;;14.80;86.00;;;;;;4988517;28;20725;-64
2021/10/09 00:38:28;;;;;;;20.17;13.73;;;14.90;86.10;;;;;;5004578;28;20694;-60
2021/10/09 00:40:53;;;;;;;25.25;14.82;;;14.90;86.00;;;;;;5005866;28;20037;-60
2021/10/09 00:43:19;;;;;;;21.38;14.32;;;14.90;86.00;;;;;;5005119;28;20129;-62
2021/10/09 00:45:57;;;;;;;17.50;13.15;;;14.90;86.00;;;;;;5022779;28;20076;-59
2021/10/09 00:48:23;;;;;;;15.45;13.10;;;14.80;85.90;;;;;;5005647;28;20033;-60
2021/10/09 00:50:49;;;;;;;19.63;14.05;;;14.80;85.90;;;;;;5034533;28;20041;-62
2021/10/09 00:53:14;;;;;;;21.55;14.20;;;14.90;85.90;;;;;;5005316;28;20030;-60
2021/10/09 00:55:40;;;;;;;20.15;12.35;;;14.90;85.80;;;;;;5022533;28;20017;-60
2021/10/09 00:58:06;;;;;;;17.88;13.18;;;14.80;85.80;;;;;;5021213;28;20061;-60
2021/10/09 01:00:32;;;;;;;22.67;13.32;;;14.80;85.80;;;;;;5021885;28;20037;-60
2021/10/09 01:02:58;;;;;;;17.08;13.32;;;14.80;85.80;;;;;;5018952;28;20265;-61
2021/10/09 01:05:23;;;;;;;21.85;14.10;;;14.80;85.70;;;;;;5001869;28;20041;-60
2021/10/09 01:07:49;;;;;;;22.90;12.90;;;14.80;85.70;;;;;;5004900;28;20030;-60
2021/10/09 01:10:14;;;;;;;15.13;13.20;;;14.80;85.70;;;;;;5022157;28;20047;-60
2021/10/09 01:12:40;;;;;;;21.77;12.93;;;14.80;85.70;;;;;;5022065;28;20033;-60
2021/10/09 01:15:19;;;;;;;19.58;13.75;;;14.80;85.70;;;;;;5003931;28;20384;-60
2021/10/09 01:17:45;;;;;;;22.25;13.85;;;14.80;85.70;;;;;;5007250;28;20148;-60
2021/10/09 01:20:11;;;;;;;19.27;13.02;;;14.80;86.30;;;;;;5021934;28;20544;-59
2021/10/09 01:22:37;;;;;;;20.50;14.27;;;14.80;85.60;;;;;;5021785;28;20477;-61
2021/10/09 01:25:04;;;;;;;16.77;13.10;;;14.80;85.50;;;;;;5004037;28;20084;-60
2021/10/09 01:27:29;;;;;;;18.95;13.27;;;14.80;85.50;;;;;;5004000;28;20029;-60
2021/10/09 01:29:55;;;;;;;15.95;12.77;;;14.80;85.50;;;;;;5021226;28;20045;-61
2021/10/09 01:32:20;;;;;;;16.20;12.93;;;14.80;85.60;;;;;;5020983;28;20041;-61
2021/10/09 01:34:46;;;;;;;15.38;12.48;;;14.80;85.50;;;;;;5025101;28;20029;-60
2021/10/09 01:37:11;;;;;;;17.60;12.95;;;14.80;85.50;;;;;;5023119;28;20641;-60
2021/10/09 01:39:46;;;;;;;17.13;13.05;;;14.70;85.50;;;;;;5025521;28;20111;-60
2021/10/09 01:42:12;;;;;;;17.67;13.00;;;14.70;85.40;;;;;;4971209;28;1083139;-60
2021/10/09 01:44:38;;;;;;;19.42;12.73;;;14.70;85.40;;;;;;4991803;28;20060;-60
2021/10/09 01:47:03;;;;;;;18.70;13.00;;;14.70;85.40;;;;;;5011262;28;20034;-60
2021/10/09 01:49:29;;;;;;;17.67;13.05;;;14.80;85.40;;;;;;5007843;28;20048;-60
2021/10/09 01:51:54;;;;;;;15.90;12.55;;;14.70;85.30;;;;;;5026817;28;20036;-60
2021/10/09 01:54:20;;;;;;;20.45;12.80;;;14.70;85.30;;;;;;5009955;28;20068;-60
2021/10/09 01:56:45;;;;;;;18.80;13.32;;;14.80;85.40;;;;;;5008671;28;20076;-60
2021/10/09 01:59:11;;;;;;;22.95;15.98;;;14.70;85.30;;;;;;5027802;28;20033;-60
2021/10/09 02:01:37;;;;;;;19.95;16.48;;;14.70;85.30;;;;;;5025800;28;20059;-60
2021/10/09 02:04:03;;;;;;;18.02;15.45;;;14.70;85.30;;;;;;5025086;28;20053;-60
2021/10/09 02:06:29;;;;;;;18.88;15.57;;;14.70;85.30;;;;;;5023907;28;20800;-60
2021/10/09 02:08:55;;;;;;;19.05;15.38;;;14.70;85.30;;;;;;5008973;28;20040;-60
2021/10/09 02:11:23;;;;;;;21.13;15.68;;;14.70;85.20;;;;;;5027145;28;20110;-60
2021/10/09 02:13:56;;;;;;;17.55;14.18;;;14.70;85.20;;;;;;5027800;28;20373;-60
2021/10/09 02:25:13;;;;;;;20.63;13.90;;;14.60;85.10;;;;;;5026206;28;20068;-60
2021/10/09 02:27:33;;;;;;;16.40;13.45;;;14.60;85.10;;;;;;5027900;28;20488;-60
2021/10/09 02:29:58;;;;;;;15.73;13.75;;;14.60;85.00;;;;;;5025740;28;20044;-60
2021/10/09 02:32:24;;;;;;;20.98;13.05;;;14.60;85.00;;;;;;5027043;28;20044;-60
2021/10/09 02:34:49;;;;;;;18.80;14.35;;;14.60;85.10;;;;;;5004376;28;20032;-60
2021/10/09 02:37:15;;;;;;;16.08;13.75;;;14.60;85.00;;;;;;5022542;28;20105;-60
2021/10/09 02:39:40;;;;;;;18.15;13.70;;;14.50;85.00;;;;;;5026173;28;20108;-61
2021/10/09 02:42:06;;;;;;;20.13;13.93;;;14.60;85.00;;;;;;5025872;28;20408;-60
2021/10/09 02:44:31;;;;;;;19.25;13.30;;;14.60;85.00;;;;;;5008078;28;20536;-61
2021/10/09 02:46:57;;;;;;;16.90;13.02;;;14.50;84.90;;;;;;5008653;28;20017;-60
2021/10/09 02:49:22;;;;;;;17.27;14.15;;;14.50;84.90;;;;;;5007815;28;20442;-60
2021/10/09 02:51:48;;;;;;;15.55;12.63;;;14.50;84.90;;;;;;5025340;28;20035;-60
2021/10/09 02:54:13;;;;;;;16.55;12.65;;;14.50;84.90;;;;;;5022178;28;20037;-60
2021/10/09 02:56:39;;;;;;;14.35;12.48;;;14.50;84.90;;;;;;5008576;28;20026;-60
2021/10/09 02:59:04;;;;;;;19.60;13.30;;;14.50;84.90;;;;;;5023870;28;20797;-60
2021/10/09 03:01:30;;;;;;;14.88;13.38;;;14.50;85.00;;;;;;5009172;28;20029;-60
2021/10/09 03:03:55;;;;;;;24.17;13.73;;;14.50;85.00;;;;;;5023523;28;20045;-60
2021/10/09 03:06:21;;;;;;;15.55;13.70;;;14.50;85.00;;;;;;5023293;28;20095;-61
2021/10/09 03:08:46;;;;;;;15.63;12.63;;;14.50;85.00;;;;;;5025484;28;20167;-61
2021/10/09 03:11:12;;;;;;;15.95;13.88;;;14.50;84.90;;;;;;5005174;28;20034;-61
2021/10/09 03:13:37;;;;;;;15.63;13.52;;;14.60;85.00;;;;;;5023941;28;20555;-60
2021/10/09 03:16:03;;;;;;;18.35;13.25;;;14.50;85.00;;;;;;5004461;28;20053;-60
2021/10/09 03:18:29;;;;;;;18.52;12.85;;;14.50;85.00;;;;;;5024585;28;20026;-60
2021/10/09 03:20:54;;;;;;;16.85;13.73;;;14.50;85.00;;;;;;5009253;28;20040;-60
2021/10/09 03:23:20;;;;;;;16.15;13.25;;;14.50;85.10;;;;;;5024590;28;20045;-60
2021/10/09 03:25:45;;;;;;;18.75;13.23;;;14.50;85.10;;;;;;5022982;28;20041;-60
2021/10/09 03:28:11;;;;;;;19.90;13.60;;;14.50;85.10;;;;;;5006740;28;20029;-60
2021/10/09 03:30:36;;;;;;;15.35;13.15;;;14.40;85.10;;;;;;5006868;28;20021;-60
2021/10/09 03:33:02;;;;;;;16.40;13.85;;;14.40;85.10;;;;;;5024672;28;20404;-60
2021/10/09 03:35:27;;;;;;;19.45;13.52;;;14.40;85.10;;;;;;4990112;28;20400;-60
2021/10/09 03:37:53;;;;;;;17.95;13.38;;;14.40;85.10;;;;;;5020755;28;20727;-60
2021/10/09 03:40:21;;;;;;;17.13;13.45;;;14.40;85.10;;;;;;5022979;28;20096;-60
2021/10/09 03:42:50;;;;;;;17.27;13.07;;;14.40;85.10;;;;;;5005923;28;20112;-60
2021/10/09 03:45:35;;;;;;;14.82;13.15;;;14.40;85.10;;;;;;5024257;28;20029;-61
2021/10/09 03:48:09;;;;;;;14.63;12.35;;;14.40;85.10;;;;;;5023704;28;20022;-61
2021/10/09 03:53:01;;;;;;;20.20;12.57;;;14.40;85.10;;;;;;5024103;28;20095;-60
2021/10/09 03:55:26;;;;;;;16.02;13.70;;;14.20;85.10;;;;;;5005421;28;20034;-60
2021/10/09 03:57:52;;;;;;;17.83;13.13;;;14.30;85.10;;;;;;5021883;28;20037;-60
2021/10/09 04:00:18;;;;;;;16.80;12.82;;;14.30;85.10;;;;;;5006850;28;20145;-61
2021/10/09 04:02:43;;;;;;;16.45;13.27;;;14.30;85.20;;;;;;5019532;28;20116;-60
2021/10/09 04:05:09;;;;;;;18.45;14.27;;;14.30;85.20;;;;;;5038817;28;20100;-61
2021/10/09 04:07:34;;;;;;;17.48;13.95;;;14.30;85.30;;;;;;5021030;28;20650;-60
2021/10/09 04:10:00;;;;;;;16.55;12.75;;;14.30;85.30;;;;;;5023367;28;20026;-61
2021/10/09 04:12:25;;;;;;;17.52;12.48;;;14.20;85.30;;;;;;5026408;28;20037;-60
2021/10/09 04:14:51;;;;;;;16.73;13.70;;;14.20;85.30;;;;;;5024967;28;20025;-60
2021/10/09 04:17:17;;;;;;;15.20;12.80;;;14.20;85.30;;;;;;4989279;28;20041;-60
2021/10/09 04:19:42;;;;;;;16.33;13.65;;;14.20;85.40;;;;;;5021907;28;20021;-60
2021/10/09 04:22:08;;;;;;;18.25;12.88;;;14.20;85.40;;;;;;5023707;28;20048;-61
2021/10/09 04:24:33;;;;;;;15.77;13.88;;;14.20;85.40;;;;;;5007384;28;20128;-60
2021/10/09 04:26:59;;;;;;;15.90;12.57;;;14.20;85.40;;;;;;5006615;28;20256;-60
2021/10/09 04:29:24;;;;;;;14.57;13.07;;;14.10;85.40;;;;;;5006607;28;20419;-60
2021/10/09 04:31:50;;;;;;;14.73;12.20;;;14.20;85.40;;;;;;5021665;28;20086;-61
2021/10/09 04:34:16;;;;;;;14.23;12.70;;;14.10;85.40;;;;;;5005697;28;20136;-60
2021/10/09 04:36:41;;;;;;;16.65;13.55;;;14.10;85.40;;;;;;5022052;28;20111;-61
2021/10/09 04:39:07;;;;;;;16.13;13.40;;;14.10;85.30;;;;;;5020380;28;20022;-60
2021/10/09 04:41:32;;;;;;;14.50;12.38;;;14.10;85.30;;;;;;5021130;28;20065;-60
2021/10/09 04:43:58;;;;;;;13.38;11.98;;;14.10;85.30;;;;;;4989853;28;20075;-60
2021/10/09 04:46:23;;;;;;;14.77;12.27;;;14.10;85.30;;;;;;5004187;28;20139;-60
2021/10/09 04:48:49;;;;;;;14.93;12.40;;;14.10;85.30;;;;;;4988071;28;20026;-61
2021/10/09 04:51:14;;;;;;;14.05;12.60;;;14.10;85.30;;;;;;5000788;28;20037;-60
2021/10/09 04:53:40;;;;;;;16.00;12.73;;;14.10;85.30;;;;;;5019870;28;20036;-60
2021/10/09 04:56:05;;;;;;;14.98;12.90;;;14.10;85.30;;;;;;5021521;28;20115;-60
2021/10/09 04:58:31;;;;;;;14.27;12.55;;;14.00;85.20;;;;;;5003033;28;20037;-60
2021/10/09 05:00:56;;;;;;;16.20;12.95;;;14.00;85.20;;;;;;5019370;28;20064;-61
2021/10/09 05:03:22;;;;;;;16.73;13.00;;;14.00;85.30;;;;;;5003363;28;20820;-61
2021/10/09 05:05:47;;;;;;;33.40;14.73;;;14.00;85.30;;;;;;5018030;28;20396;-60
2021/10/09 05:08:13;;;;;;;43.47;15.13;;;14.00;85.30;;;;;;5020083;28;20037;-60
2021/10/09 05:10:40;;;;;;;56.15;16.63;;;14.00;85.40;;;;;;5002748;28;20412;-60
2021/10/09 05:13:05;;;;;;;90.45;19.52;;;14.00;85.40;;;;;;5019542;28;20049;-60
2021/10/09 05:15:31;;;;;;;156.45;24.90;;;14.00;85.40;;;;;;5019824;28;20037;-60
2021/10/09 05:17:57;;;;;;;213.65;25.33;;;14.00;85.50;;;;;;5002585;28;20401;-62
2021/10/09 05:20:23;;;;;;;144.68;22.98;;;14.00;85.50;;;;;;5021629;28;20108;-62
2021/10/09 05:22:49;;;;;;;119.68;21.33;;;14.00;85.40;;;;;;5002280;28;20018;-62
2021/10/09 05:25:14;;;;;;;133.50;21.02;;;14.00;85.50;;;;;;5003764;28;20068;-60
2021/10/09 05:27:44;;;;;;;112.22;19.70;;;14.00;85.40;;;;;;4989927;28;20065;-60
2021/10/09 05:30:12;;;;;;;117.45;19.25;;;14.00;85.50;;;;;;5022575;28;20041;-59
2021/10/09 05:32:47;;;;;;;110.95;18.80;;;14.00;85.50;;;;;;5022452;28;20380;-60
2021/10/09 05:35:13;;;;;;;82.33;19.17;;;14.00;85.70;;;;;;5023599;28;20108;-59
2021/10/09 05:37:39;;;;;;;104.18;18.00;;;13.90;86.00;;;;;;5019402;28;20038;-59
2021/10/09 05:40:06;;;;;;;110.45;18.85;;;13.90;86.30;;;;;;5019328;28;20514;-59
2021/10/09 05:42:31;;;;;;;112.93;19.42;;;13.90;86.30;;;;;;5022540;28;20049;-60
2021/10/09 05:44:57;;;;;;;83.13;17.95;;;13.90;86.20;;;;;;5020103;28;20115;-60
2021/10/09 05:47:22;;;;;;;98.20;18.27;;;13.90;86.30;;;;;;5021885;28;20511;-63
2021/10/09 05:49:53;;;;;;;114.72;19.13;;;14.00;86.30;;;;;;5021593;28;20036;-63
2021/10/09 05:52:26;;;;;;;90.63;18.23;;;13.90;86.20;;;;;;4989024;28;20030;-59
2021/10/09 05:55:15;;;;;;;76.97;18.10;;;13.90;86.30;;;;;;5022348;28;20049;-60
2021/10/09 05:57:52;;;;;;;90.35;17.27;;;13.90;86.30;;;;;;5023472;28;20038;-59
2021/10/09 06:42:15;;;;;;;39.60;14.23;;;13.80;86.50;;;;;;5011676;28;20151;-59
2021/10/09 06:46:39;;;;;;;40.10;14.07;;;13.80;86.60;;;;;;5025797;28;20033;-62
2021/10/09 06:59:43;;;;;;;41.88;13.52;;;13.80;86.50;;;;;;5025711;28;20120;-61
2021/10/09 07:02:08;;;;;;;40.80;14.57;;;13.70;86.40;;;;;;5024849;28;20112;-62
2021/10/09 07:04:34;;;;;;;35.78;12.43;;;13.70;86.40;;;;;;5026009;28;20476;-63
2021/10/09 07:07:03;;;;;;;32.60;13.32;;;13.70;86.50;;;;;;5006971;28;20143;-63
2021/10/09 07:09:29;;;;;;;28.20;12.50;;;13.70;86.40;;;;;;5022871;28;20063;-62
2021/10/09 07:11:54;;;;;;;25.20;12.10;;;13.70;86.40;;;;;;5009057;28;20594;-63
2021/10/09 07:14:20;;;;;;;39.03;12.15;;;13.70;86.60;;;;;;5008061;28;20651;-63
2021/10/09 07:16:46;;;;;;;26.05;12.88;;;13.70;86.60;;;;;;5026126;28;20029;-63
2021/10/09 07:19:11;;;;;;;26.75;12.68;;;13.60;86.60;;;;;;5023832;28;20025;-62
2021/10/09 07:21:37;;;;;;;25.77;12.38;;;13.70;86.60;;;;;;5024915;28;20055;-63
2021/10/09 07:24:03;;;;;;;25.67;12.27;;;13.60;86.60;;;;;;5022395;28;20037;-61
2021/10/09 07:26:28;;;;;;;24.55;12.57;;;13.60;86.60;;;;;;5008319;28;20087;-62
2021/10/09 07:28:54;;;;;;;22.25;12.90;;;13.60;86.60;;;;;;5024775;28;20037;-62
2021/10/09 07:31:20;;;;;;;27.67;12.95;;;13.60;86.50;;;;;;5005354;28;20121;-62
2021/10/09 07:33:45;;;;;;;23.50;12.00;;;13.60;86.50;;;;;;5008484;28;20024;-62
2021/10/09 07:36:11;;;;;;;22.73;12.20;;;13.60;86.50;;;;;;5022526;28;20054;-62
2021/10/09 07:38:36;;;;;;;24.33;12.50;;;13.60;86.40;;;;;;5007544;28;20324;-62
2021/10/09 07:41:02;;;;;;;22.35;11.63;;;13.60;86.40;;;;;;5021935;28;20030;-62
2021/10/09 07:43:28;;;;;;;18.33;11.82;;;13.60;86.30;;;;;;5004555;28;20053;-62
2021/10/09 07:45:53;;;;;;;20.10;10.88;;;13.60;86.30;;;;;;5022611;28;20079;-62
2021/10/09 07:48:19;;;;;;;14.68;11.20;;;13.60;86.30;;;;;;5021550;28;20041;-62
2021/10/09 07:50:44;;;;;;;18.27;11.07;;;13.60;86.30;;;;;;5020575;28;20631;-62
2021/10/09 07:53:10;;;;;;;18.35;11.93;;;13.60;86.30;;;;;;5021629;28;20273;-62
2021/10/09 07:55:35;;;;;;;20.23;11.75;;;13.60;86.20;;;;;;5023731;28;20500;-62
2021/10/09 07:58:01;;;;;;;18.67;11.52;;;13.60;86.20;;;;;;5019022;28;20029;-63
2021/10/09 08:00:26;;;;;;;26.38;11.05;;;13.60;86.10;;;;;;5016937;28;20492;-62
2021/10/09 08:02:52;;;;;;;18.67;11.05;;;13.60;86.10;;;;;;5016304;28;20037;-62
2021/10/09 08:05:18;;;;;;;18.38;11.77;;;13.60;86.10;;;;;;4997431;28;20297;-62
2021/10/09 08:07:43;;;;;;;24.85;11.75;;;13.60;86.00;;;;;;5014980;28;20053;-62
2021/10/09 08:10:09;;;;;;;22.25;12.07;;;13.60;86.10;;;;;;5016727;28;20060;-62
2021/10/09 08:12:35;;;;;;;24.95;11.98;;;13.60;86.00;;;;;;5018199;28;20034;-62
2021/10/09 08:15:00;;;;;;;18.08;11.40;;;13.60;86.00;;;;;;4999340;28;20036;-63
2021/10/09 08:17:26;;;;;;;32.65;11.68;;;13.60;85.90;;;;;;5019407;28;20550;-62
2021/10/09 08:19:52;;;;;;;35.55;12.45;;;13.60;85.90;;;;;;5003435;28;20027;-62
2021/10/09 08:22:19;;;;;;;31.75;12.70;;;13.60;85.90;;;;;;5020937;28;20040;-62
2021/10/09 08:24:50;;;;;;;34.33;13.68;;;13.70;86.10;;;;;;5018342;28;20124;-62
2021/10/09 08:35:34;;;;;;;65.05;14.80;;;13.70;86.00;;;;;;5016793;28;20154;-62
2021/10/09 08:40:44;;;;;;;85.70;16.13;;;13.70;85.90;;;;;;5018440;28;20518;-62
2021/10/09 08:43:09;;;;;;;70.70;15.98;;;13.70;86.00;;;;;;5001364;28;20045;-62
2021/10/09 08:45:35;;;;;;;69.22;15.82;;;13.80;86.40;;;;;;5020216;28;20100;-62
2021/10/09 08:48:00;;;;;;;57.60;14.80;;;13.80;86.40;;;;;;5021087;28;20383;-61
2021/10/09 08:50:26;;;;;;;66.07;15.60;;;13.80;86.20;;;;;;5003433;28;20041;-62
2021/10/09 08:53:09;;;;;;;77.30;16.70;;;13.80;86.10;;;;;;4999665;28;20048;-62
2021/10/09 08:55:37;;;;;;;64.28;17.63;;;13.90;86.30;;;;;;5018275;28;20216;-62
2021/10/09 08:58:06;;;;;;;85.05;18.80;;;13.90;86.30;;;;;;5002095;28;20105;-62
2021/10/09 09:03:27;;;;;;;132.65;23.10;;;13.90;86.50;;;;;;5019203;28;20049;-62
2021/10/09 09:06:13;;;;;;;131.50;22.30;;;13.90;86.40;;;;;;5001039;28;20127;-61
2021/10/09 09:09:14;;;;;;;153.68;21.67;;;14.00;86.30;;;;;;5018648;28;20467;-61
2021/10/09 09:34:09;;;;;;;151.70;23.35;;;14.20;85.40;;;;;;5017520;28;20132;-62
2021/10/09 09:39:09;;;;;;;143.88;21.33;;;14.30;85.40;;;;;;5017860;28;20412;-62
2021/10/09 09:41:48;;;;;;;94.53;18.52;;;14.20;85.30;;;;;;5002031;28;20059;-62
2021/10/09 09:44:16;;;;;;;143.73;23.48;;;14.30;85.30;;;;;;5002538;28;20076;-62
2021/10/09 09:46:41;;;;;;;122.53;20.02;;;14.30;85.40;;;;;;4999543;28;20017;-62
2021/10/09 09:49:07;;;;;;;124.28;18.73;;;14.30;85.30;;;;;;5013167;28;20103;-62
2021/10/09 09:51:38;;;;;;;124.47;20.17;;;14.30;85.20;;;;;;5014537;28;20037;-62
2021/10/09 09:54:04;;;;;;;117.43;17.83;;;14.40;85.00;;;;;;5015015;28;20030;-62
2021/10/09 09:56:29;;;;;;;93.97;16.45;;;14.40;84.80;;;;;;5005071;28;20098;-61
2021/10/09 09:59:00;;;;;;;292.30;35.65;;;14.30;84.60;;;;;;5003442;28;20091;-62
2021/10/09 10:01:31;;;;;;;116.80;20.20;;;14.30;84.60;;;;;;5022477;28;20048;-62
2021/10/09 10:03:57;;;;;;;128.95;19.92;;;14.40;84.60;;;;;;5023608;28;20124;-62
2021/10/09 10:06:23;;;;;;;109.22;19.42;;;14.40;84.60;;;;;;5003293;28;20487;-62
2021/10/09 10:08:48;;;;;;;110.10;18.85;;;14.40;84.70;;;;;;5005210;28;22037;-62
2021/10/09 10:11:17;;;;;;;117.97;20.60;;;14.50;84.90;;;;;;5007981;28;20037;-61
2021/10/09 10:13:43;;;;;;;120.50;20.17;;;14.40;84.70;;;;;;5008055;28;20047;-62
2021/10/09 10:16:10;;;;;;;97.53;17.60;;;14.50;84.50;;;;;;5023460;28;20041;-62
2021/10/09 10:18:45;;;;;;;112.20;20.00;;;14.50;84.50;;;;;;5009671;28;20032;-63
2021/10/09 10:21:14;;;;;;;114.87;18.70;;;14.60;84.50;;;;;;5027591;28;20033;-62
2021/10/09 10:23:41;;;;;;;103.22;18.33;;;14.70;84.30;;;;;;5025002;28;20751;-62
2021/10/09 10:26:28;;;;;;;119.05;19.50;;;14.50;84.00;;;;;;4991064;28;20049;-61
2021/10/09 10:28:53;;;;;;;90.15;17.17;;;14.60;84.10;;;;;;5024179;28;20431;-59
2021/10/09 10:31:18;;;;;;;81.95;17.27;;;14.50;83.90;;;;;;5025747;28;20033;-62
2021/10/09 10:33:48;;;;;;;81.43;16.60;;;14.60;83.80;;;;;;5009200;28;20450;-62
2021/10/09 10:36:40;;;;;;;79.82;16.05;;;14.60;83.70;;;;;;5024487;28;20021;-62
2021/10/09 10:39:07;;;;;;;112.40;15.82;;;14.60;83.80;;;;;;5023907;28;20037;-62
2021/10/09 10:41:41;;;;;;;74.85;15.35;;;14.60;83.00;;;;;;5006678;28;20561;-62
2021/10/09 10:44:08;;;;;;;75.43;14.60;;;14.60;82.90;;;;;;5024954;28;20041;-62
2021/10/09 10:46:44;;;;;;;80.32;16.40;;;14.60;82.80;;;;;;5008663;28;20495;-63
2021/10/09 10:51:48;;;;;;;66.07;15.30;;;14.70;82.80;;;;;;5023832;28;20040;-59
2021/10/09 10:57:04;;;;;;;70.00;14.15;;;14.70;82.50;;;;;;5009529;28;20033;-59
2021/10/09 10:59:33;;;;;;;87.80;16.42;;;14.80;82.50;;;;;;5026194;28;20033;-60
2021/10/09 11:02:11;;;;;;;61.72;14.07;;;14.80;82.40;;;;;;5024556;28;20025;-59
2021/10/09 11:04:48;;;;;;;54.33;13.43;;;14.80;82.40;;;;;;5023341;28;20017;-59
2021/10/09 11:07:13;;;;;;;54.47;12.80;;;14.80;82.20;;;;;;5006435;28;20421;-59
2021/10/09 11:09:39;;;;;;;73.60;12.98;;;14.80;82.00;;;;;;5023992;28;20029;-59
2021/10/09 11:12:19;;;;;;;43.92;11.95;;;15.00;82.00;;;;;;5008085;28;20094;-59
2021/10/09 11:14:44;;;;;;;45.25;12.05;;;14.80;81.90;;;;;;5007719;28;20033;-59
2021/10/09 11:17:10;;;;;;;86.25;14.38;;;14.90;81.70;;;;;;5002914;28;20037;-62
2021/10/09 11:19:49;;;;;;;50.58;12.85;;;14.90;81.30;;;;;;5021822;28;20064;-62
2021/10/09 11:22:17;;;;;;;50.10;11.73;;;14.90;81.20;;;;;;5008935;28;20057;-62
2021/10/09 11:24:53;;;;;;;63.85;15.63;;;14.90;80.90;;;;;;5024858;28;20021;-62
2021/10/09 11:27:19;;;;;;;59.83;12.77;;;14.90;80.60;;;;;;5022867;28;20034;-62
2021/10/09 11:30:08;;;;;;;47.72;12.13;;;14.90;80.70;;;;;;5022701;28;20029;-62
2021/10/09 11:32:35;;;;;;;52.33;11.82;;;15.00;80.60;;;;;;5021770;28;20259;-59
2021/10/09 11:35:00;;;;;;;59.83;12.18;;;14.90;80.50;;;;;;5005657;28;20026;-60
2021/10/09 11:37:26;;;;;;;51.42;12.52;;;14.70;80.40;;;;;;5039050;28;20064;-61
2021/10/09 11:39:53;;;;;;;51.38;10.43;;;15.00;80.60;;;;;;5023350;28;20037;-63
2021/10/09 11:42:22;;;;;;;56.20;12.32;;;15.00;80.30;;;;;;4989799;28;20037;-62
2021/10/09 11:45:17;;;;;;;81.57;14.25;;;15.00;80.30;;;;;;5007309;28;20507;-62
2021/10/09 11:56:00;;;;;;;50.33;11.45;;;15.10;79.80;;;;;;5023440;28;20131;-60
2021/10/09 11:58:25;;;;;;;47.88;10.88;;;15.20;79.60;;;;;;5021014;28;20083;-58
2021/10/09 12:00:51;;;;;;;71.65;12.82;;;15.20;79.70;;;;;;5023480;28;20034;-59
2021/10/09 12:03:35;;;;;;;70.07;15.18;;;15.20;79.50;;;;;;5023788;28;20029;-61
2021/10/09 12:06:11;;;;;;;91.60;15.77;;;15.30;79.60;;;;;;5006012;28;20475;-62
2021/10/09 12:08:47;;;;;;;85.40;14.75;;;15.30;79.40;;;;;;4998700;28;20025;-62
2021/10/09 12:11:31;;;;;;;106.35;15.07;;;15.30;79.40;;;;;;5004744;28;20033;-60
2021/10/09 12:14:09;;;;;;;121.75;16.80;;;15.40;79.40;;;;;;5031791;28;20029;-60
2021/10/09 12:16:43;;;;;;;82.07;15.00;;;15.40;79.50;;;;;;5023055;28;20057;-60
2021/10/09 12:19:13;;;;;;;113.90;16.40;;;15.40;79.10;;;;;;5008021;28;20013;-60
2021/10/09 12:21:51;;;;;;;101.82;15.45;;;15.40;79.00;;;;;;5022755;28;20017;-62
2021/10/09 12:24:21;;;;;;;273.13;28.55;;;15.40;79.00;;;;;;5022748;28;20037;-62
2021/10/09 12:27:06;;;;;;;102.07;19.13;;;15.50;79.00;;;;;;5023437;28;20120;-61
2021/10/09 12:29:34;;;;;;;113.72;17.48;;;15.40;78.90;;;;;;5007406;28;20477;-61
2021/10/09 12:32:17;;;;;;;93.35;14.57;;;15.40;78.90;;;;;;5021601;28;20049;-61
2021/10/09 12:34:43;;;;;;;99.78;14.65;;;15.50;79.20;;;;;;5004565;28;20500;-61
2021/10/09 12:37:26;;;;;;;128.15;16.33;;;15.50;78.90;;;;;;5022003;28;20044;-61
2021/10/09 12:40:12;;;;;;;110.40;16.70;;;15.50;78.90;;;;;;5007725;28;20055;-61
2021/10/09 12:42:37;;;;;;;123.35;17.65;;;15.60;79.00;;;;;;5021495;28;20045;-61
2021/10/09 12:45:04;;;;;;;626.58;56.75;;;15.60;79.10;;;;;;5007486;28;20343;-62
2021/10/09 12:47:29;;;;;;;144.48;18.02;;;15.60;78.90;;;;;;5022669;28;20025;-62
2021/10/09 12:49:55;;;;;;;128.93;17.80;;;15.70;78.80;;;;;;5006753;28;20100;-61
2021/10/09 12:52:20;;;;;;;111.82;16.08;;;15.70;78.70;;;;;;5024467;28;20083;-62
2021/10/09 12:54:46;;;;;;;104.68;13.60;;;15.80;78.70;;;;;;4989994;28;20429;-62
2021/10/09 12:57:11;;;;;;;113.90;17.75;;;15.80;78.60;;;;;;5023599;28;20632;-61
2021/10/09 12:59:37;;;;;;;90.35;15.20;;;15.70;78.70;;;;;;5023846;28;20025;-61
2021/10/09 13:02:03;;;;;;;94.65;15.40;;;15.80;78.60;;;;;;5005487;28;20029;-61
2021/10/09 13:04:28;;;;;;;111.28;15.55;;;15.80;78.90;;;;;;4987557;28;20478;-61
2021/10/09 13:06:54;;;;;;;89.88;14.27;;;15.80;78.80;;;;;;5023124;28;20038;-61
2021/10/09 13:09:19;;;;;;;100.35;15.77;;;15.80;78.70;;;;;;5023766;28;20037;-61
2021/10/09 13:11:59;;;;;;;102.60;15.57;;;15.90;78.60;;;;;;5006928;28;20088;-62
2021/10/09 13:14:25;;;;;;;81.22;14.65;;;15.90;78.70;;;;;;5007273;28;20036;-61
2021/10/09 13:16:50;;;;;;;81.85;13.82;;;15.90;78.60;;;;;;5020903;28;20045;-61
2021/10/09 13:19:16;;;;;;;86.95;15.90;;;15.90;78.20;;;;;;5005857;28;20457;-61
2021/10/09 13:21:41;;;;;;;75.75;13.80;;;15.90;78.20;;;;;;5022162;28;20029;-61
2021/10/09 13:24:07;;;;;;;84.00;14.73;;;15.90;78.40;;;;;;5022486;28;20094;-61
2021/10/09 13:26:33;;;;;;;77.03;14.05;;;15.90;78.30;;;;;;5022243;28;20084;-61
2021/10/09 13:29:02;;;;;;;82.38;16.15;;;15.90;79.10;;;;;;5024506;28;20045;-61
2021/10/09 13:31:27;;;;;;;85.97;14.85;;;15.90;78.60;;;;;;5024545;28;20064;-62
2021/10/09 13:33:53;;;;;;;156.48;20.52;;;15.90;78.60;;;;;;5026698;28;20045;-61
2021/10/09 13:36:20;;;;;;;80.05;13.00;;;15.90;78.60;;;;;;5008419;28;20025;-61
2021/10/09 13:38:46;;;;;;;122.55;14.98;;;15.90;78.40;;;;;;5026025;28;20457;-62
2021/10/09 13:41:11;;;;;;;82.55;14.48;;;15.90;78.30;;;;;;5026694;28;20101;-61
2021/10/09 13:43:38;;;;;;;106.72;16.15;;;16.00;78.10;;;;;;5027140;28;20124;-61
2021/10/09 13:46:03;;;;;;;77.38;14.57;;;16.00;78.20;;;;;;5026445;28;20124;-61
2021/10/09 13:48:29;;;;;;;78.43;14.57;;;16.00;78.10;;;;;;5028329;28;20121;-61
2021/10/09 13:50:54;;;;;;;82.00;13.90;;;16.10;78.20;;;;;;5025849;28;20026;-61
2021/10/09 13:53:20;;;;;;;72.97;14.02;;;16.10;78.00;;;;;;5025719;28;20053;-61
2021/10/09 13:55:46;;;;;;;86.40;14.18;;;16.10;78.00;;;;;;5024056;28;20041;-62
2021/10/09 13:58:12;;;;;;;75.72;14.48;;;16.10;77.90;;;;;;5009799;28;20034;-61
2021/10/09 14:00:38;;;;;;;120.07;18.00;;;16.20;78.10;;;;;;5025342;28;20104;-62
2021/10/09 14:03:04;;;;;;;78.45;14.68;;;16.20;78.10;;;;;;5026901;28;21079;-60
2021/10/09 14:05:30;;;;;;;93.75;15.95;;;16.20;78.10;;;;;;5024701;28;20026;-61
2021/10/09 14:07:55;;;;;;;95.43;15.68;;;16.20;78.00;;;;;;5021980;28;20104;-61
2021/10/09 14:10:21;;;;;;;90.07;14.15;;;16.20;77.80;;;;;;5024912;28;20125;-62
2021/10/09 14:12:47;;;;;;;94.60;14.50;;;16.20;78.00;;;;;;5006794;28;20116;-62
2021/10/09 14:15:12;;;;;;;102.93;17.20;;;16.30;78.10;;;;;;5024786;28;20036;-61
2021/10/09 14:17:38;;;;;;;117.47;16.63;;;16.30;78.00;;;;;;5024041;28;20488;-62
2021/10/09 14:20:05;;;;;;;108.72;15.95;;;16.30;78.00;;;;;;5024645;28;20517;-61
2021/10/09 14:22:33;;;;;;;108.53;16.73;;;16.30;78.10;;;;;;5024841;28;20040;-62
2021/10/09 14:24:59;;;;;;;115.30;16.60;;;16.30;78.10;;;;;;5008416;28;20765;-61
2021/10/09 14:27:28;;;;;;;98.53;16.50;;;16.30;78.30;;;;;;5025575;28;20038;-62